createdAt,value
2022-11-16T07:40:27.239Z,942.9190674
2022-11-16T07:41:27.663Z,942.9176636
2022-11-16T07:42:28.401Z,942.9412231
2022-11-16T07:43:29.064Z,942.9567261
2022-11-16T07:44:30.458Z,943.0030518
2022-11-16T07:45:30.917Z,942.9813843
2022-11-16T07:46:46.392Z,942.9592896
2022-11-16T07:47:31.983Z,942.9641113
2022-11-16T07:48:32.962Z,942.9365845
2022-11-16T07:49:33.231Z,942.9570313
2022-11-16T07:50:33.686Z,942.9819336
2022-11-16T07:51:34.154Z,942.9835815
2022-11-16T07:52:34.610Z,942.986145
2022-11-16T07:53:35.368Z,942.9796753
2022-11-16T07:54:36.769Z,942.958374
2022-11-16T07:55:37.919Z,942.9545288
2022-11-16T07:56:38.452Z,942.9777832
2022-11-16T07:57:38.970Z,942.9396973
2022-11-16T07:58:39.557Z,942.9615479
2022-11-16T07:59:40.234Z,942.9408569
2022-11-16T08:00:40.974Z,942.9440918
2022-11-16T08:01:41.668Z,942.9414673
2022-11-16T08:02:42.099Z,942.9706421
2022-11-16T08:03:42.559Z,942.9586182
2022-11-16T08:04:44.081Z,942.9981079
2022-11-16T08:05:44.800Z,943.0078735
2022-11-16T08:06:45.473Z,943.0623169
2022-11-16T08:07:45.982Z,943.0564575
2022-11-16T08:08:47.405Z,943.0460815
2022-11-16T08:09:47.947Z,943.0753174
2022-11-16T08:10:48.495Z,943.0817261
2022-11-16T08:11:49.079Z,943.0792236
2022-11-16T08:12:49.642Z,943.0623169
2022-11-16T08:13:50.139Z,943.0215454
2022-11-16T08:14:50.626Z,943.0053711
2022-11-16T08:15:51.210Z,943.0391235
2022-11-16T08:16:51.834Z,943.005249
2022-11-16T08:18:22.536Z,943.0581055
2022-11-16T08:19:53.234Z,943.0929565
2022-11-16T08:20:53.718Z,943.1199951
2022-11-16T08:21:54.461Z,943.1415405
2022-11-16T08:22:55.103Z,943.1726074
2022-11-16T08:24:26.698Z,943.1638794
2022-11-16T08:25:27.162Z,943.185791
2022-11-16T08:26:28.140Z,943.2023926
2022-11-16T08:27:28.826Z,943.2245483
2022-11-16T08:28:29.498Z,943.2363892
2022-11-16T08:29:30.151Z,943.2125244
2022-11-16T08:30:30.629Z,943.1967163
2022-11-16T08:31:31.169Z,943.2408447
2022-11-16T08:32:31.778Z,943.2011108
2022-11-16T08:33:32.523Z,943.2138062
2022-11-16T08:34:33.190Z,943.1989136
2022-11-16T08:35:34.780Z,943.189209
2022-11-16T08:36:35.235Z,943.18927
2022-11-16T08:37:35.873Z,943.163147
2022-11-16T08:38:36.530Z,943.1663208
2022-11-16T08:39:37.140Z,943.1712646
2022-11-16T08:40:37.756Z,943.1434326
2022-11-16T08:41:38.240Z,943.1952515
2022-11-16T08:42:43.481Z,943.1660767
2022-11-16T08:43:39.417Z,943.1289063
2022-11-16T08:44:39.967Z,943.1942139
2022-11-16T08:45:41.258Z,943.171875
2022-11-16T08:46:41.819Z,943.1596069
2022-11-16T08:47:42.287Z,943.1414185
2022-11-16T08:48:43.649Z,943.1226807
2022-11-16T08:49:49.357Z,943.1773682
2022-11-16T08:51:10.487Z,943.1976318
2022-11-16T08:51:45.711Z,943.1878662
2022-11-16T08:52:46.164Z,943.2114868
2022-11-16T08:53:47.153Z,943.2295532
2022-11-16T08:54:47.670Z,943.2193604
2022-11-16T08:55:48.644Z,943.2019043
2022-11-16T08:56:49.125Z,943.1924438
2022-11-16T08:57:49.620Z,943.1748657
2022-11-16T08:58:55.252Z,943.2114258
2022-11-16T08:59:50.517Z,943.1607666
2022-11-16T09:00:51.005Z,943.1658325
2022-11-16T09:01:51.613Z,943.1271973
2022-11-16T09:02:51.991Z,943.1695557
2022-11-16T09:03:52.515Z,943.1361084
2022-11-16T09:04:52.990Z,943.1450195
2022-11-16T09:05:53.491Z,943.1387329
2022-11-16T09:06:54.005Z,943.1188965
2022-11-16T09:07:55.390Z,943.1046753
2022-11-16T09:09:25.605Z,943.1188354
2022-11-16T09:10:26.177Z,943.1384277
2022-11-16T09:11:26.704Z,943.0845337
2022-11-16T09:12:27.183Z,943.1504517
2022-11-16T09:13:27.722Z,943.1821899
2022-11-16T09:14:28.130Z,943.197998
2022-11-16T09:15:29.428Z,943.2182617
2022-11-16T09:16:29.903Z,943.2061768
2022-11-16T09:17:30.427Z,943.227478
2022-11-16T09:18:31.223Z,943.258728
2022-11-16T09:19:32.253Z,943.2514038
2022-11-16T09:20:33.809Z,943.2324829
2022-11-16T09:21:34.472Z,943.2692261
2022-11-16T09:22:35.136Z,943.2467041
2022-11-16T09:23:35.878Z,943.2422485
2022-11-16T09:24:37.284Z,943.2410889
2022-11-16T09:25:38.650Z,943.269043
2022-11-16T09:26:39.119Z,943.2479858
2022-11-16T09:27:39.717Z,943.2382813
2022-11-16T09:28:55.349Z,943.1875
2022-11-16T09:29:40.980Z,943.217041
2022-11-16T09:30:41.525Z,943.2456055
2022-11-16T09:31:41.994Z,943.2259521
2022-11-16T09:32:42.459Z,943.2025757
2022-11-16T09:33:42.983Z,943.190918
2022-11-16T09:34:44.093Z,943.2114258
2022-11-16T09:35:43.885Z,943.2076416
2022-11-16T09:36:44.334Z,943.2449951
2022-11-16T09:37:44.777Z,943.2307739
2022-11-16T09:39:17.830Z,943.2116699
2022-11-16T09:39:45.736Z,943.2126465
2022-11-16T09:40:46.454Z,943.2224731
2022-11-16T09:41:46.945Z,943.1369019
2022-11-16T09:42:47.383Z,943.1849365
2022-11-16T09:43:47.920Z,943.2109375
2022-11-16T09:44:48.542Z,943.2028809
2022-11-16T09:45:49.903Z,943.1812744
2022-11-16T09:46:50.553Z,943.2015381
2022-11-16T09:47:51.024Z,943.1369019
2022-11-16T09:48:51.483Z,943.1539917
2022-11-16T09:49:51.971Z,943.1045532
2022-11-16T09:50:53.312Z,943.1133423
2022-11-16T09:51:53.902Z,943.0443115
2022-11-16T09:53:24.837Z,943.0264893
2022-11-16T09:54:26.131Z,943.0664063
2022-11-16T09:55:27.423Z,943.0037231
2022-11-16T09:56:28.100Z,943.034668
2022-11-16T09:57:28.857Z,943.0605469
2022-11-16T09:58:31.307Z,943.0515747
2022-11-16T09:59:29.680Z,943.0256348
2022-11-16T10:00:30.221Z,943.0250244
2022-11-16T10:01:31.419Z,943.0766602
2022-11-16T10:02:32.270Z,943.1011963
2022-11-16T10:03:33.139Z,943.09375
2022-11-16T10:04:33.139Z,943.0904541
2022-11-16T10:05:33.578Z,943.0895996
2022-11-16T10:06:34.921Z,943.1253052
2022-11-16T10:07:35.619Z,943.130127
2022-11-16T10:08:36.427Z,943.196106
2022-11-16T10:09:36.712Z,943.1220093
2022-11-16T10:10:37.150Z,943.145752
2022-11-16T10:11:37.623Z,943.1068726
2022-11-16T10:12:38.278Z,943.1480713
2022-11-16T10:13:38.880Z,943.0939331
2022-11-16T10:14:39.462Z,943.1091919
2022-11-16T10:15:40.921Z,943.0841675
2022-11-16T10:16:41.426Z,943.0914917
2022-11-16T10:17:42.090Z,943.0742798
2022-11-16T10:18:42.663Z,943.1010742
2022-11-16T10:19:43.805Z,943.0900269
2022-11-16T10:20:44.406Z,943.0646362
2022-11-16T10:21:45.036Z,943.0574951
2022-11-16T10:22:46.479Z,943.0625
2022-11-16T10:23:47.321Z,943.0460815
2022-11-16T10:24:48.810Z,943.022644
2022-11-16T10:25:50.006Z,943.0145264
2022-11-16T10:26:50.460Z,943.0187378
2022-11-16T10:27:50.911Z,942.9578247
2022-11-16T10:28:51.504Z,943.0046997
2022-11-16T10:29:52.417Z,942.975769
2022-11-16T10:30:53.134Z,942.9880371
2022-11-16T10:32:24.261Z,942.9568481
2022-11-16T10:33:24.741Z,942.9318848
2022-11-16T10:34:25.194Z,942.8947144
2022-11-16T10:35:25.679Z,942.9067383
2022-11-16T10:36:26.773Z,942.8743896
2022-11-16T10:37:27.253Z,942.8967285
2022-11-16T10:38:27.658Z,942.9040527
2022-11-16T10:39:28.123Z,942.8641968
2022-11-16T10:40:28.825Z,942.9138794
2022-11-16T10:41:29.668Z,942.8607788
2022-11-16T10:42:30.454Z,942.8527832
2022-11-16T10:43:31.071Z,942.8638916
2022-11-16T10:44:31.393Z,942.8128052
2022-11-16T10:45:31.979Z,942.817627
2022-11-16T10:46:33.348Z,942.7803345
2022-11-16T10:47:36.069Z,942.8013916
2022-11-16T10:48:34.780Z,942.7770386
2022-11-16T10:49:35.518Z,942.7495117
2022-11-16T10:50:36.173Z,942.7277222
2022-11-16T10:51:36.846Z,942.7226563
2022-11-16T10:52:37.724Z,942.6975708
2022-11-16T10:53:39.004Z,942.7017212
2022-11-16T10:54:44.047Z,942.6765137
2022-11-16T10:55:40.980Z,942.6115723
2022-11-16T10:56:41.453Z,942.6829834
2022-11-16T10:57:42.109Z,942.6846313
2022-11-16T10:58:42.764Z,942.6523438
2022-11-16T10:59:43.398Z,942.706543
2022-11-16T11:00:44.288Z,942.631897
2022-11-16T11:01:44.652Z,942.6238403
2022-11-16T11:02:45.163Z,942.5808105
2022-11-16T11:03:45.589Z,942.6124878
2022-11-16T11:04:46.030Z,942.5638428
2022-11-16T11:05:47.540Z,942.6369019
2022-11-16T11:06:48.126Z,942.6124268
2022-11-16T11:07:48.508Z,942.6045532
2022-11-16T11:08:49.126Z,942.5778198
2022-11-16T11:09:50.469Z,942.5770264
2022-11-16T11:10:51.167Z,942.5512695
2022-11-16T11:11:51.642Z,942.5609131
2022-11-16T11:12:52.481Z,942.6120605
2022-11-16T11:13:53.439Z,942.5220337
2022-11-16T11:15:26.498Z,942.5204468
2022-11-16T11:16:25.807Z,942.5814209
2022-11-16T11:17:26.521Z,942.5700073
2022-11-16T11:18:27.096Z,942.491272
2022-11-16T11:19:27.562Z,942.4798584
2022-11-16T11:20:28.228Z,942.5879517
2022-11-16T11:21:28.874Z,942.5140381
2022-11-16T11:22:29.678Z,942.4790039
2022-11-16T11:23:30.376Z,942.4977417
2022-11-16T11:24:44.465Z,942.4847412
2022-11-16T11:25:31.106Z,942.4587402
2022-11-16T11:26:36.596Z,942.392395
2022-11-16T11:27:33.120Z,942.414978
2022-11-16T11:28:33.862Z,942.4777832
2022-11-16T11:29:34.323Z,942.3616943
2022-11-16T11:30:34.802Z,942.350647
2022-11-16T11:31:35.275Z,942.5446167
2022-11-16T11:32:36.132Z,942.3068848
2022-11-16T11:33:37.286Z,942.3961182
2022-11-16T11:34:37.360Z,942.3027954
2022-11-16T11:35:37.812Z,942.3936157
2022-11-16T11:36:39.143Z,942.3435669
2022-11-16T11:37:39.734Z,942.3370361
2022-11-16T11:38:40.524Z,942.3035889
2022-11-16T11:39:41.129Z,942.3217163
2022-11-16T11:40:41.545Z,942.4362793
2022-11-16T11:41:42.648Z,942.3746338
2022-11-16T11:42:43.369Z,942.3942261
2022-11-16T11:43:44.075Z,942.3161621
2022-11-16T11:44:44.696Z,942.3049927
2022-11-16T11:45:45.220Z,942.3757935
2022-11-16T11:47:35.150Z,942.4285889
2022-11-16T11:47:58.164Z,942.3092041
2022-11-16T11:48:47.579Z,942.373291
2022-11-16T11:49:48.318Z,942.2979126
2022-11-16T11:50:48.927Z,942.250061
2022-11-16T11:51:49.381Z,942.2380981
2022-11-16T11:52:50.407Z,942.2383423
2022-11-16T11:53:51.114Z,942.1693115
2022-11-16T11:54:51.779Z,942.1270142
2022-11-16T11:55:52.886Z,942.2025146
2022-11-16T11:57:24.437Z,942.1443481
2022-11-16T11:58:24.851Z,942.1312256
2022-11-16T11:59:25.497Z,942.1207886
2022-11-16T12:00:26.155Z,942.0631104
2022-11-16T12:01:26.788Z,942.1108398
2022-11-16T12:02:27.271Z,942.0078735
2022-11-16T12:03:28.659Z,941.9957275
2022-11-16T12:04:29.254Z,941.9957886
2022-11-16T12:05:29.775Z,941.9227905
2022-11-16T12:06:31.013Z,941.8789063
2022-11-16T12:07:31.518Z,941.8660889
2022-11-16T12:08:31.926Z,941.8724976
2022-11-16T12:09:32.492Z,941.8830566
2022-11-16T12:10:33.052Z,941.9035034
2022-11-16T12:11:33.720Z,941.8327637
2022-11-16T12:12:34.403Z,941.7921753
2022-11-16T12:13:35.281Z,941.7232056
2022-11-16T12:14:35.419Z,941.736084
2022-11-16T12:15:35.886Z,941.6738281
2022-11-16T12:16:37.250Z,941.611084
2022-11-16T12:17:37.880Z,941.6063232
2022-11-16T12:18:38.999Z,941.5518188
2022-11-16T12:19:39.483Z,941.5762329
2022-11-16T12:20:39.948Z,941.5820313
2022-11-16T12:21:40.393Z,941.5639648
2022-11-16T12:22:41.221Z,941.5445557
2022-11-16T12:23:41.913Z,941.524231
2022-11-16T12:24:43.221Z,941.5179443
2022-11-16T12:25:43.686Z,941.477356
2022-11-16T12:26:44.944Z,941.4627075
2022-11-16T12:27:45.736Z,941.4682007
2022-11-16T12:28:50.848Z,941.4603271
2022-11-16T12:29:47.027Z,941.4910278
2022-11-16T12:30:48.467Z,941.5438843
2022-11-16T12:31:48.937Z,941.5862427
2022-11-16T12:32:49.550Z,941.5081177
2022-11-16T12:33:50.193Z,941.4862671
2022-11-16T12:34:50.897Z,941.5214233
2022-11-16T12:35:51.488Z,941.4408569
2022-11-16T12:37:22.946Z,941.4715576
2022-11-16T12:38:26.217Z,941.5056763
2022-11-16T12:39:24.075Z,941.4390869
2022-11-16T12:40:24.731Z,941.3699951
2022-11-16T12:41:25.324Z,941.4391479
2022-11-16T12:42:25.733Z,941.4000244
2022-11-16T12:43:26.332Z,941.4522095
2022-11-16T12:44:26.792Z,941.4129639
2022-11-16T12:45:32.004Z,941.4307251
2022-11-16T12:46:29.012Z,941.34375
2022-11-16T12:47:29.491Z,941.3607788
2022-11-16T12:48:29.992Z,941.4161987
2022-11-16T12:49:30.510Z,941.3439941
2022-11-16T12:50:31.283Z,941.3789063
2022-11-16T12:51:32.207Z,941.2600098
2022-11-16T12:52:33.442Z,941.2731323
2022-11-16T12:53:34.224Z,941.243103
2022-11-16T12:54:34.920Z,941.2365723
2022-11-16T12:55:35.626Z,941.2762451
2022-11-16T12:56:37.012Z,941.2298584
2022-11-16T12:57:37.704Z,941.2509155
2022-11-16T12:58:38.489Z,941.2128296
2022-11-16T12:59:38.636Z,941.1815796
2022-11-16T13:00:39.344Z,941.1540527
2022-11-16T13:01:39.995Z,941.1834106
2022-11-16T13:02:40.764Z,941.2313843
2022-11-16T13:03:42.238Z,941.1409302
2022-11-16T13:04:43.410Z,941.2092285
2022-11-16T13:05:43.847Z,941.1699829
2022-11-16T13:06:45.081Z,941.1676636
2022-11-16T13:07:46.797Z,941.2390747
2022-11-16T13:08:47.494Z,941.1185303
2022-11-16T13:09:48.761Z,941.1095581
2022-11-16T13:10:49.179Z,941.0541992
2022-11-16T13:11:49.646Z,941.0043945
2022-11-16T13:12:52.686Z,941.0287476
2022-11-16T13:13:53.566Z,940.9944458
2022-11-16T13:14:52.453Z,940.914978
2022-11-16T13:16:23.212Z,940.8392334
2022-11-16T13:17:24.738Z,940.8883057
2022-11-16T13:18:25.450Z,940.9373169
2022-11-16T13:19:26.887Z,940.9552612
2022-11-16T13:20:29.871Z,940.9654541
2022-11-16T13:21:30.319Z,940.8759155
2022-11-16T13:22:30.767Z,940.9620972
2022-11-16T13:23:31.787Z,940.8925781
2022-11-16T13:24:33.089Z,940.8728027
2022-11-16T13:25:33.803Z,940.9268799
2022-11-16T13:26:34.265Z,940.918457
2022-11-16T13:27:35.775Z,940.8829956
2022-11-16T13:28:36.620Z,940.8773193
2022-11-16T13:29:36.800Z,940.887085
2022-11-16T13:30:37.519Z,940.8984375
2022-11-16T13:31:38.331Z,940.8495483
2022-11-16T13:32:38.910Z,940.8546143
2022-11-16T13:33:39.378Z,940.8707886
2022-11-16T13:34:40.011Z,940.8710327
2022-11-16T13:35:40.870Z,940.7852173
2022-11-16T13:36:42.412Z,940.8054199
2022-11-16T13:37:43.004Z,940.8627319
2022-11-16T13:38:44.423Z,940.8445435
2022-11-16T13:39:44.979Z,940.8004761
2022-11-16T13:40:45.629Z,940.8340454
2022-11-16T13:41:46.385Z,940.8728027
2022-11-16T13:42:47.034Z,940.8591919
2022-11-16T13:43:47.433Z,940.8473511
2022-11-16T13:44:51.539Z,940.8060913
2022-11-16T13:45:48.550Z,940.7924805
2022-11-16T13:46:56.133Z,940.798645
2022-11-16T13:47:50.715Z,940.8245239
2022-11-16T13:48:51.660Z,940.7654419
2022-11-16T13:50:22.618Z,940.7683105
2022-11-16T13:51:23.198Z,940.7351685
2022-11-16T13:52:28.754Z,940.7783813
2022-11-16T13:54:25.120Z,940.6947021
2022-11-16T13:54:46.134Z,940.7340698
2022-11-16T13:55:26.650Z,940.7510376
2022-11-16T13:56:29.381Z,940.7136841
2022-11-16T13:57:28.336Z,940.720459
2022-11-16T13:58:29.043Z,940.7173462
2022-11-16T13:59:30.394Z,940.7348633
2022-11-16T14:00:30.915Z,940.7235718
2022-11-16T14:01:31.518Z,940.7581787
2022-11-16T14:02:31.938Z,940.7803955
2022-11-16T14:03:32.749Z,940.7324829
2022-11-16T14:04:33.111Z,940.730957
2022-11-16T14:05:34.299Z,940.7492676
2022-11-16T14:06:34.907Z,940.7069702
2022-11-16T14:07:36.170Z,940.7090454
2022-11-16T14:08:36.896Z,940.7316895
2022-11-16T14:09:37.644Z,940.7281494
2022-11-16T14:10:39.215Z,940.7391968
2022-11-16T14:11:39.725Z,940.7016602
2022-11-16T14:12:40.149Z,940.7059326
2022-11-16T14:13:41.040Z,940.7351074
2022-11-16T14:14:43.456Z,940.7003174
2022-11-16T14:15:44.181Z,940.7106323
2022-11-16T14:16:44.805Z,940.6798706
2022-11-16T14:17:45.245Z,940.7045288
2022-11-16T14:18:45.862Z,940.715332
2022-11-16T14:19:47.560Z,940.6383057
2022-11-16T14:20:47.976Z,940.6634521
2022-11-16T14:21:48.656Z,940.68573
2022-11-16T14:22:49.167Z,940.6500244
2022-11-16T14:23:49.637Z,940.6299438
2022-11-16T14:24:50.257Z,940.6235352
2022-11-16T14:25:51.366Z,940.5898438
2022-11-16T14:27:27.751Z,940.5470581
2022-11-16T14:28:23.372Z,940.5412598
2022-11-16T14:29:23.834Z,940.5257568
2022-11-16T14:30:24.310Z,940.5422363
2022-11-16T14:31:24.800Z,940.5114136
2022-11-16T14:32:25.308Z,940.489502
2022-11-16T14:33:25.750Z,940.453125
2022-11-16T14:34:26.191Z,940.4473267
2022-11-16T14:35:27.230Z,940.4320068
2022-11-16T14:36:27.725Z,940.4247437
2022-11-16T14:37:28.216Z,940.4053345
2022-11-16T14:38:28.701Z,940.4031372
2022-11-16T14:39:29.659Z,940.4265747
2022-11-16T14:40:30.090Z,940.3903198
2022-11-16T14:41:30.589Z,940.4163818
2022-11-16T14:42:38.224Z,940.4065552
2022-11-16T14:43:31.788Z,940.3757935
2022-11-16T14:44:32.022Z,940.3676758
2022-11-16T14:45:33.136Z,940.3602905
2022-11-16T14:46:33.587Z,940.3609619
2022-11-16T14:47:34.967Z,940.3381958
2022-11-16T14:48:35.463Z,940.3203735
2022-11-16T14:49:35.948Z,940.3099976
2022-11-16T14:50:40.760Z,940.3261108
2022-11-16T14:51:37.435Z,940.2952881
2022-11-16T14:52:38.019Z,940.3099976
2022-11-16T14:53:38.778Z,940.336853
2022-11-16T14:54:39.040Z,940.2766113
2022-11-16T14:55:40.172Z,940.3110352
2022-11-16T14:56:40.603Z,940.2963867
2022-11-16T14:57:42.096Z,940.276001
2022-11-16T14:58:42.576Z,940.3345947
2022-11-16T14:59:43.033Z,940.296936
2022-11-16T15:00:43.472Z,940.326416
2022-11-16T15:01:43.890Z,940.3566895
2022-11-16T15:02:49.461Z,940.3418579
2022-11-16T15:03:45.006Z,940.3833008
2022-11-16T15:04:45.505Z,940.4511108
2022-11-16T15:05:46.045Z,940.4500122
2022-11-16T15:06:46.497Z,940.4584351
2022-11-16T15:07:47.668Z,940.4592285
2022-11-16T15:08:48.110Z,940.4761963
2022-11-16T15:09:48.567Z,940.434082
2022-11-16T15:10:52.346Z,940.4314575
2022-11-16T15:11:49.529Z,940.4106445
2022-11-16T15:12:49.948Z,940.4536743
2022-11-16T15:14:21.044Z,940.4366455
2022-11-16T15:15:21.535Z,940.4415894
2022-11-16T15:16:21.993Z,940.447876
2022-11-16T15:17:27.190Z,940.4584351
2022-11-16T15:18:24.016Z,940.4237671
2022-11-16T15:19:24.944Z,940.4537354
2022-11-16T15:20:25.444Z,940.3657837
2022-11-16T15:21:25.930Z,940.3903198
2022-11-16T15:22:26.404Z,940.3529663
2022-11-16T15:23:30.422Z,940.371582
2022-11-16T15:24:31.017Z,940.3464966
2022-11-16T15:25:28.531Z,940.350769
2022-11-16T15:26:29.154Z,940.3440552
2022-11-16T15:27:30.486Z,940.3125
2022-11-16T15:28:30.998Z,940.3190918
2022-11-16T15:29:31.360Z,940.2661133
2022-11-16T15:30:31.779Z,940.2515869
2022-11-16T15:31:32.278Z,940.1895142
2022-11-16T15:32:32.778Z,940.1799927
2022-11-16T15:33:33.563Z,940.1890869
2022-11-16T15:34:33.674Z,940.1824341
2022-11-16T15:35:34.087Z,940.1832886
2022-11-16T15:36:35.439Z,940.2345581
2022-11-16T15:37:35.868Z,940.2263794
2022-11-16T15:38:36.516Z,940.2614136
2022-11-16T15:39:37.938Z,940.2443848
2022-11-16T15:40:38.358Z,940.225769
2022-11-16T15:41:38.785Z,940.2631226
2022-11-16T15:42:39.302Z,940.2754517
2022-11-16T15:43:49.772Z,940.3104858
2022-11-16T15:44:40.313Z,940.2763062
2022-11-16T15:45:40.805Z,940.3325195
2022-11-16T15:46:41.228Z,940.2658081
2022-11-16T15:47:41.750Z,940.2971802
2022-11-16T15:48:43.234Z,940.2974854
2022-11-16T15:49:43.741Z,940.3145142
2022-11-16T15:50:44.231Z,940.27948
2022-11-16T15:51:44.663Z,940.2640381
2022-11-16T15:52:45.105Z,940.2715454
2022-11-16T15:53:45.555Z,940.2406006
2022-11-16T15:54:46.031Z,940.2601318
2022-11-16T15:55:47.241Z,940.2490845
2022-11-16T15:56:47.644Z,940.260498
2022-11-16T15:57:48.980Z,940.2546997
2022-11-16T15:58:49.489Z,940.3167114
2022-11-16T16:00:20.475Z,940.3353271
2022-11-16T16:01:21.007Z,940.314209
2022-11-16T16:02:21.391Z,940.3338013
2022-11-16T16:03:21.860Z,940.2803345
2022-11-16T16:04:22.584Z,940.2615356
2022-11-16T16:05:24.176Z,940.2306519
2022-11-16T16:06:23.646Z,940.243103
2022-11-16T16:07:24.093Z,940.2194824
2022-11-16T16:08:25.236Z,940.2090454
2022-11-16T16:09:25.709Z,940.1951294
2022-11-16T16:10:26.276Z,940.1936035
2022-11-16T16:11:27.184Z,940.2075195
2022-11-16T16:12:27.241Z,940.1431885
2022-11-16T16:13:27.708Z,940.1824951
2022-11-16T16:14:28.210Z,940.1629028
2022-11-16T16:15:28.731Z,940.1278687
2022-11-16T16:16:29.178Z,940.1084595
2022-11-16T16:17:29.613Z,940.0929565
2022-11-16T16:18:30.048Z,940.0908813
2022-11-16T16:19:31.471Z,940.0606079
2022-11-16T16:20:31.857Z,940.0576782
2022-11-16T16:21:32.295Z,940.097168
2022-11-16T16:22:32.802Z,940.1273193
2022-11-16T16:23:33.691Z,940.1543579
2022-11-16T16:24:33.699Z,940.1282959
2022-11-16T16:25:34.946Z,940.1395264
2022-11-16T16:26:35.571Z,940.1242676
2022-11-16T16:27:36.168Z,940.0917969
2022-11-16T16:28:37.150Z,940.1606445
2022-11-16T16:29:37.619Z,940.1015625
2022-11-16T16:30:38.009Z,940.0982056
2022-11-16T16:31:38.440Z,940.0925293
2022-11-16T16:32:38.864Z,940.1096802
2022-11-16T16:33:39.316Z,940.0551758
2022-11-16T16:34:42.389Z,940.0658569
2022-11-16T16:35:40.218Z,940.0714111
2022-11-16T16:36:40.635Z,940.0772095
2022-11-16T16:37:41.196Z,940.1082764
2022-11-16T16:38:42.176Z,940.1400757
2022-11-16T16:39:42.966Z,940.0865479
2022-11-16T16:40:43.406Z,940.0621948
2022-11-16T16:41:43.859Z,940.0558472
2022-11-16T16:42:44.969Z,940.0257568
2022-11-16T16:43:45.364Z,940.072876
2022-11-16T16:44:45.779Z,940.0687256
2022-11-16T16:45:46.257Z,940.0580444
2022-11-16T16:46:46.666Z,940.0371704
2022-11-16T16:47:47.144Z,940.0817261
2022-11-16T16:48:48.155Z,940.0823975
2022-11-16T16:49:48.588Z,940.0581055
2022-11-16T16:50:49.477Z,940.0344238
2022-11-16T16:52:20.259Z,940.0578003
2022-11-16T16:53:20.659Z,940.095459
2022-11-16T16:54:21.081Z,940.1235962
2022-11-16T16:55:22.147Z,940.164856
2022-11-16T16:56:22.704Z,940.1495361
2022-11-16T16:57:23.180Z,940.151123
2022-11-16T16:58:23.609Z,940.1404419
2022-11-16T16:59:23.992Z,940.1031494
2022-11-16T17:00:25.168Z,940.0465698
2022-11-16T17:01:25.634Z,940.088623
2022-11-16T17:02:26.061Z,940.0722656
2022-11-16T17:03:26.525Z,940.0493774
2022-11-16T17:04:27.028Z,940.0836182
2022-11-16T17:05:28.149Z,940.1298218
2022-11-16T17:06:28.581Z,940.1345215
2022-11-16T17:07:29.981Z,940.1101074
2022-11-16T17:08:30.457Z,940.1173706
2022-11-16T17:09:31.462Z,940.1118164
2022-11-16T17:10:31.883Z,940.09375
2022-11-16T17:11:32.334Z,940.1237793
2022-11-16T17:12:32.755Z,940.1928101
2022-11-16T17:13:33.360Z,940.1903076
2022-11-16T17:14:33.601Z,940.1603394
2022-11-16T17:15:34.018Z,940.164978
2022-11-16T17:16:34.458Z,940.1568604
2022-11-16T17:17:34.903Z,940.1268921
2022-11-16T17:18:35.970Z,940.1032715
2022-11-16T17:19:36.347Z,940.0929565
2022-11-16T17:20:40.207Z,940.079834
2022-11-16T17:21:38.099Z,940.0125122
2022-11-16T17:22:38.538Z,940.0320435
2022-11-16T17:23:39.013Z,940.0286865
2022-11-16T17:24:39.438Z,940.0044556
2022-11-16T17:25:39.868Z,939.9962769
2022-11-16T17:26:41.177Z,939.9587402
2022-11-16T17:27:41.628Z,939.9246216
2022-11-16T17:28:42.699Z,939.9302979
2022-11-16T17:29:43.134Z,939.9285889
2022-11-16T17:30:43.570Z,939.8457642
2022-11-16T17:31:44.013Z,939.8596191
2022-11-16T17:32:44.424Z,939.8775024
2022-11-16T17:33:44.895Z,939.8570557
2022-11-16T17:34:45.272Z,939.8464355
2022-11-16T17:35:45.690Z,939.8543701
2022-11-16T17:36:46.695Z,939.8365479
2022-11-16T17:37:47.113Z,939.8634644
2022-11-16T17:38:48.196Z,939.8499756
2022-11-16T17:40:19.205Z,939.8181152
2022-11-16T17:41:20.165Z,939.7849731
2022-11-16T17:42:20.580Z,939.7952881
2022-11-16T17:43:21.036Z,939.7458496
2022-11-16T17:44:22.086Z,939.7636108
2022-11-16T17:45:21.856Z,939.7254639
2022-11-16T17:46:22.317Z,939.744751
2022-11-16T17:47:22.784Z,939.7572021
2022-11-16T17:48:23.226Z,939.7165527
2022-11-16T17:49:24.488Z,939.6832886
2022-11-16T17:50:24.898Z,939.7438965
2022-11-16T17:51:25.357Z,939.7091675
2022-11-16T17:52:25.778Z,939.7218628
2022-11-16T17:53:31.264Z,939.6864014
2022-11-16T17:54:26.641Z,939.6682739
2022-11-16T17:55:27.674Z,939.6983032
2022-11-16T17:56:28.089Z,939.6674805
2022-11-16T17:57:28.506Z,939.6213989
2022-11-16T17:58:29.467Z,939.6195068
2022-11-16T17:59:30.226Z,939.6218872
2022-11-16T18:00:30.347Z,939.5943604
2022-11-16T18:01:30.848Z,939.531311
2022-11-16T18:02:31.185Z,939.5077515
2022-11-16T18:03:31.792Z,939.4873657
2022-11-16T18:04:32.071Z,939.47052
2022-11-16T18:05:32.431Z,939.4298706
2022-11-16T18:06:32.846Z,939.4176636
2022-11-16T18:07:33.368Z,939.4734497
2022-11-16T18:08:34.449Z,939.4556885
2022-11-16T18:09:34.911Z,939.465332
2022-11-16T18:10:35.320Z,939.4498291
2022-11-16T18:11:35.729Z,939.4312744
2022-11-16T18:12:36.952Z,939.3848267
2022-11-16T18:13:37.609Z,939.4057617
2022-11-16T18:14:37.853Z,939.3449707
2022-11-16T18:15:42.341Z,939.3694458
2022-11-16T18:16:38.678Z,939.3782959
2022-11-16T18:17:39.955Z,939.338623
2022-11-16T18:18:40.961Z,939.328064
2022-11-16T18:19:41.524Z,939.2938843
2022-11-16T18:20:41.804Z,939.2468262
2022-11-16T18:21:42.241Z,939.2589111
2022-11-16T18:22:42.725Z,939.2351685
2022-11-16T18:23:43.158Z,939.2644043
2022-11-16T18:24:43.607Z,939.2092285
2022-11-16T18:25:44.004Z,939.1743164
2022-11-16T18:26:45.212Z,939.1306763
2022-11-16T18:27:45.648Z,939.0527954
2022-11-16T18:28:46.997Z,939.0406494
2022-11-16T18:29:47.462Z,939.0073242
2022-11-16T18:30:48.953Z,938.9742432
2022-11-16T18:32:19.585Z,938.9442139
2022-11-16T18:33:20.000Z,938.9483032
2022-11-16T18:34:20.446Z,938.9074707
2022-11-16T18:35:20.888Z,938.9050903
2022-11-16T18:36:21.257Z,938.8936157
2022-11-16T18:37:21.700Z,938.8517456
2022-11-16T18:38:22.111Z,938.8847656
2022-11-16T18:39:24.144Z,938.8822632
2022-11-16T18:40:24.586Z,938.8845825
2022-11-16T18:41:24.992Z,938.9129028
2022-11-16T18:42:25.403Z,938.9104614
2022-11-16T18:43:25.840Z,938.9387207
2022-11-16T18:44:26.272Z,938.9465332
2022-11-16T18:45:27.852Z,938.9515381